Ora Direzione Vento Velocita' Vento Media Vento Raffica Max. Temperatura Wind Chill Pioggia Pressione
22:40:52.0270 °(W)8.0 Kts6.6 Kts29.2 Kts7.2 °C4.9 °C0.6 mm1005.0 Hpa
22:20:10.0225 °(SW)12.6 Kts10.5 Kts29.2 Kts7.3 °C4.0 °C0.6 mm1004.7 Hpa
21:59:28.0225 °(SW)3.9 Kts3.3 Kts29.2 Kts6.6 °C5.5 °C0.6 mm1004.9 Hpa
21:40:52.0248 °(WSW)4.7 Kts3.9 Kts29.2 Kts6.7 °C5.3 °C0.6 mm1004.7 Hpa
21:20:08.0270 °(W)9.9 Kts8.0 Kts29.2 Kts7.1 °C4.4 °C0.6 mm1004.5 Hpa
20:59:29.0225 °(SW)21.2 Kts19.8 Kts29.2 Kts8.3 °C3.9 °C0.6 mm1004.5 Hpa
20:40:51.0270 °(W)10.5 Kts9.3 Kts29.2 Kts7.0 °C3.9 °C0.6 mm1004.1 Hpa
20:20:09.0248 °(WSW)9.3 Kts8.0 Kts29.2 Kts7.0 °C4.3 °C0.6 mm1003.9 Hpa
19:59:26.0270 °(W)16.5 Kts14.6 Kts29.2 Kts7.9 °C4.1 °C0.6 mm1003.8 Hpa
19:40:49.0225 °(SW)17.1 Kts14.6 Kts29.2 Kts8.3 °C4.6 °C0.6 mm1003.9 Hpa
19:20:07.0270 °(W)11.9 Kts10.5 Kts29.2 Kts8.1 °C5.1 °C0.6 mm1003.4 Hpa
18:59:27.0270 °(W)15.2 Kts13.2 Kts29.2 Kts8.8 °C5.5 °C0.6 mm1003.2 Hpa
18:40:50.0248 °(WSW)13.8 Kts11.9 Kts29.2 Kts9.0 °C5.9 °C0.6 mm1003.3 Hpa
18:20:04.0270 °(W)10.5 Kts8.0 Kts29.2 Kts9.3 °C7.1 °C0.6 mm1003.1 Hpa
17:59:21.0270 °(W)8.0 Kts6.0 Kts29.2 Kts9.0 °C7.2 °C0.6 mm1003.2 Hpa
17:40:42.0225 °(SW)7.2 Kts6.0 Kts29.2 Kts9.4 °C7.7 °C0.6 mm1002.8 Hpa
17:19:57.0225 °(SW)6.6 Kts5.3 Kts29.2 Kts9.1 °C7.6 °C0.6 mm1002.7 Hpa
16:59:08.0270 °(W)3.9 Kts2.7 Kts29.2 Kts9.2 °C8.8 °C0.6 mm1002.5 Hpa
16:40:26.0270 °(W)4.7 Kts3.9 Kts29.2 Kts9.4 °C8.5 °C0.6 mm1002.4 Hpa
16:19:39.0270 °(W)3.9 Kts3.3 Kts29.2 Kts9.9 °C9.3 °C0.6 mm1002.4 Hpa